Time;durP1;ratioP1;P1;durP2;ratioP2;P2;SDS_P1;SDS_P2;PMS_P1;PMS_P2;Temp;Humidity;BMP_temperature;BMP_pressure;BME280_temperature;BME280_humidity;BME280_pressure;Samples;Min_cycle;Max_cycle;Signal;HPM_P1;HPM_P2
2023/01/08 00:00:57;;;;;;;4.38;1.95;;;;;;;;;;5003286;28;20305;-84
2023/01/08 00:03:23;;;;;;;4.40;2.20;;;;;;;;;;5009453;28;20040;-83
2023/01/08 00:05:49;;;;;;;3.70;2.17;;;;;;;;;;5010080;28;20025;-83
2023/01/08 00:08:14;;;;;;;4.45;2.22;;;;;;;;;;5004658;28;20120;-84
2023/01/08 00:10:40;;;;;;;6.97;2.25;;;;;;;;;;5026898;28;20030;-84
2023/01/08 00:13:06;;;;;;;4.75;1.90;;;;;;;;;;5010606;28;20488;-84
2023/01/08 00:15:34;;;;;;;3.38;1.92;;;;;;;;;;5008838;28;20075;-83
2023/01/08 00:18:01;;;;;;;3.35;1.80;;;;;;;;;;5009527;28;20030;-84
2023/01/08 00:20:27;;;;;;;5.25;2.13;;;;;;;;;;5010544;28;20036;-83
2023/01/08 00:22:52;;;;;;;4.35;2.17;;;;;;;;;;5013940;28;20060;-84
2023/01/08 00:25:19;;;;;;;3.72;1.80;;;;;;;;;;5008197;28;20116;-84
2023/01/08 00:27:45;;;;;;;4.05;2.00;;;;;;;;;;5013070;28;20049;-84
2023/01/08 00:30:11;;;;;;;4.50;2.13;;;;;;;;;;5011618;28;20025;-83
2023/01/08 00:32:37;;;;;;;5.47;2.25;;;;;;;;;;5011610;28;20398;-84
2023/01/08 00:35:02;;;;;;;5.05;2.28;;;;;;;;;;5013389;28;20040;-84
2023/01/08 00:37:28;;;;;;;4.38;2.35;;;;;;;;;;5011953;28;20116;-84
2023/01/08 00:39:54;;;;;;;3.80;2.05;;;;;;;;;;5005695;28;20036;-84
2023/01/08 00:42:20;;;;;;;4.88;2.13;;;;;;;;;;5007275;28;20524;-83
2023/01/08 00:44:45;;;;;;;5.20;2.22;;;;;;;;;;5023412;28;20029;-84
2023/01/08 00:47:10;;;;;;;3.83;2.13;;;;;;;;;;5008876;28;20108;-84
2023/01/08 00:49:36;;;;;;;4.22;1.88;;;;;;;;;;5009809;28;20030;-84
2023/01/08 00:52:01;;;;;;;5.18;1.88;;;;;;;;;;5013432;28;20117;-83
2023/01/08 00:54:27;;;;;;;4.13;1.90;;;;;;;;;;5009645;28;20036;-80
2023/01/08 00:56:54;;;;;;;4.90;2.00;;;;;;;;;;5014157;28;20030;-83
2023/01/08 00:59:20;;;;;;;4.20;2.10;;;;;;;;;;5012239;28;20096;-84
2023/01/08 01:01:45;;;;;;;3.45;1.95;;;;;;;;;;5012986;28;20026;-83
2023/01/08 01:04:11;;;;;;;4.80;2.10;;;;;;;;;;5004414;28;20030;-83
2023/01/08 01:06:36;;;;;;;3.33;2.10;;;;;;;;;;5011343;28;20018;-83
2023/01/08 01:09:02;;;;;;;5.68;2.30;;;;;;;;;;4992022;28;20398;-81
2023/01/08 01:11:27;;;;;;;4.13;1.83;;;;;;;;;;5005781;28;20025;-83
2023/01/08 01:13:55;;;;;;;4.60;1.98;;;;;;;;;;5008367;28;20018;-82
2023/01/08 01:16:20;;;;;;;4.10;2.10;;;;;;;;;;5003789;28;20899;-83
2023/01/08 01:18:46;;;;;;;3.78;1.85;;;;;;;;;;5005536;28;20034;-85
2023/01/08 01:21:22;;;;;;;3.42;1.80;;;;;;;;;;5000157;28;20113;-83
2023/01/08 01:23:49;;;;;;;4.68;2.25;;;;;;;;;;5003385;28;20494;-83
2023/01/08 01:26:16;;;;;;;5.13;2.30;;;;;;;;;;5002844;28;20034;-84
2023/01/08 01:28:42;;;;;;;5.18;2.03;;;;;;;;;;5008887;28;20117;-81
2023/01/08 01:31:10;;;;;;;4.32;2.10;;;;;;;;;;5006895;28;20124;-84
2023/01/08 01:33:36;;;;;;;5.15;2.00;;;;;;;;;;5023928;28;20120;-84
2023/01/08 01:36:02;;;;;;;4.80;2.05;;;;;;;;;;4987360;28;20566;-84
2023/01/08 01:38:28;;;;;;;5.45;2.28;;;;;;;;;;5008530;28;20071;-84
2023/01/08 01:40:53;;;;;;;5.35;2.10;;;;;;;;;;5008919;28;20021;-84
2023/01/08 01:43:38;;;;;;;4.93;2.10;;;;;;;;;;5008224;28;20508;-84
2023/01/08 01:46:22;;;;;;;3.83;2.03;;;;;;;;;;5009800;28;20084;-84
2023/01/08 01:48:51;;;;;;;5.35;2.30;;;;;;;;;;5019423;28;20541;-83
2023/01/08 01:51:18;;;;;;;3.78;1.85;;;;;;;;;;5004354;28;20057;-84
2023/01/08 01:53:44;;;;;;;4.68;2.10;;;;;;;;;;5004538;28;20984;-81
2023/01/08 01:56:09;;;;;;;5.97;2.22;;;;;;;;;;5008060;28;20033;-83
2023/01/08 01:58:35;;;;;;;4.22;2.30;;;;;;;;;;5006622;28;20040;-84
2023/01/08 02:01:04;;;;;;;6.00;2.50;;;;;;;;;;5002466;28;20030;-83
2023/01/08 02:03:34;;;;;;;4.55;2.20;;;;;;;;;;5003330;28;20069;-84
2023/01/08 02:06:14;;;;;;;5.72;2.40;;;;;;;;;;5006470;28;20036;-82
2023/01/08 02:09:04;;;;;;;3.92;2.20;;;;;;;;;;5004466;28;20124;-82
2023/01/08 02:14:58;;;;;;;4.38;2.25;;;;;;;;;;5004537;28;20040;-84
2023/01/08 02:17:44;;;;;;;5.40;2.60;;;;;;;;;;5000960;28;20116;-82
2023/01/08 02:20:19;;;;;;;5.25;2.33;;;;;;;;;;4997195;28;20030;-83
2023/01/08 02:23:23;;;;;;;4.70;2.20;;;;;;;;;;5015357;28;20128;-84
2023/01/08 02:26:19;;;;;;;5.15;2.38;;;;;;;;;;5006819;28;20037;-80
2023/01/08 02:28:59;;;;;;;3.58;1.98;;;;;;;;;;5002540;28;20060;-83
2023/01/08 02:31:27;;;;;;;5.03;1.95;;;;;;;;;;5006315;28;20381;-83
2023/01/08 02:33:53;;;;;;;4.45;1.67;;;;;;;;;;5006859;28;20481;-84
2023/01/08 02:36:24;;;;;;;4.43;1.70;;;;;;;;;;4999756;28;20022;-83
2023/01/08 02:39:02;;;;;;;3.03;1.52;;;;;;;;;;4998812;28;20045;-83
2023/01/08 02:41:40;;;;;;;2.53;1.20;;;;;;;;;;5003200;28;20034;-83
2023/01/08 02:44:10;;;;;;;5.05;1.10;;;;;;;;;;5004197;28;20034;-84
2023/01/08 02:46:38;;;;;;;3.78;1.08;;;;;;;;;;5007029;28;20018;-82
2023/01/08 02:49:08;;;;;;;3.88;1.30;;;;;;;;;;5004518;28;20112;-80
2023/01/08 02:51:40;;;;;;;3.45;1.15;;;;;;;;;;5007864;28;20475;-84
2023/01/08 02:54:11;;;;;;;3.63;0.70;;;;;;;;;;5006264;28;20026;-83
2023/01/08 02:56:43;;;;;;;1.48;0.60;;;;;;;;;;5006313;28;20425;-83
2023/01/08 02:59:11;;;;;;;3.65;0.68;;;;;;;;;;5003111;28;20079;-83
2023/01/08 03:01:38;;;;;;;3.17;0.85;;;;;;;;;;4998893;28;20026;-84
2023/01/08 03:04:08;;;;;;;2.22;0.45;;;;;;;;;;4995987;28;20136;-83
2023/01/08 03:06:34;;;;;;;2.90;0.52;;;;;;;;;;5005446;28;20025;-83
2023/01/08 03:09:00;;;;;;;1.98;0.57;;;;;;;;;;4999846;28;20172;-83
2023/01/08 03:11:32;;;;;;;1.77;0.60;;;;;;;;;;5001320;28;20034;-78
2023/01/08 03:14:30;;;;;;;2.90;0.63;;;;;;;;;;5020655;28;20488;-84
2023/01/08 03:17:02;;;;;;;1.25;0.40;;;;;;;;;;4988163;28;20026;-84
2023/01/08 03:19:51;;;;;;;1.02;0.45;;;;;;;;;;4998983;28;20610;-83
2023/01/08 03:22:18;;;;;;;5.05;0.90;;;;;;;;;;5015580;28;20034;-83
2023/01/08 03:24:48;;;;;;;1.17;0.43;;;;;;;;;;5002552;28;20125;-78
2023/01/08 03:27:20;;;;;;;2.50;0.70;;;;;;;;;;5009581;28;20029;-83
2023/01/08 03:29:49;;;;;;;1.55;0.60;;;;;;;;;;5006690;28;20116;-82
2023/01/08 03:32:17;;;;;;;3.20;0.70;;;;;;;;;;5005865;28;20141;-83
2023/01/08 03:34:44;;;;;;;1.27;0.30;;;;;;;;;;5006693;28;20038;-83
2023/01/08 03:37:12;;;;;;;2.30;0.50;;;;;;;;;;5004258;28;20481;-83
2023/01/08 03:39:51;;;;;;;1.15;0.40;;;;;;;;;;5004014;28;20048;-82
2023/01/08 03:42:19;;;;;;;2.03;0.45;;;;;;;;;;5008234;28;20029;-81
2023/01/08 03:44:45;;;;;;;2.10;0.40;;;;;;;;;;5006218;28;20543;-83
2023/01/08 03:47:12;;;;;;;2.15;0.40;;;;;;;;;;5002252;28;20026;-84
2023/01/08 03:49:39;;;;;;;1.75;0.50;;;;;;;;;;5002573;28;20034;-82
2023/01/08 03:52:05;;;;;;;2.80;0.60;;;;;;;;;;5000983;28;20034;-84
2023/01/08 03:54:35;;;;;;;5.88;0.60;;;;;;;;;;5009197;28;20021;-83
2023/01/08 03:57:01;;;;;;;3.10;0.60;;;;;;;;;;5002583;28;20100;-83
2023/01/08 03:59:27;;;;;;;1.83;0.40;;;;;;;;;;5002808;28;20090;-84
2023/01/08 04:01:52;;;;;;;3.95;0.73;;;;;;;;;;5003504;28;20172;-83
2023/01/08 04:04:17;;;;;;;1.90;0.50;;;;;;;;;;5000376;28;20686;-84
2023/01/08 04:06:43;;;;;;;2.75;0.55;;;;;;;;;;5003802;28;20068;-83
2023/01/08 04:09:08;;;;;;;4.75;0.55;;;;;;;;;;5003036;28;20037;-83
2023/01/08 04:11:34;;;;;;;1.40;0.40;;;;;;;;;;4999645;28;20044;-83
2023/01/08 04:13:59;;;;;;;0.68;0.30;;;;;;;;;;5000092;28;20034;-83
2023/01/08 04:16:25;;;;;;;2.08;0.45;;;;;;;;;;5002776;28;20465;-83
2023/01/08 04:18:51;;;;;;;3.67;0.60;;;;;;;;;;4981863;28;20389;-83
2023/01/08 04:21:16;;;;;;;1.83;0.50;;;;;;;;;;5001563;28;20409;-83
2023/01/08 04:23:41;;;;;;;2.17;0.60;;;;;;;;;;5000391;28;20659;-82
2023/01/08 04:26:07;;;;;;;3.20;0.80;;;;;;;;;;5002133;28;20466;-83
2023/01/08 04:28:33;;;;;;;4.03;0.60;;;;;;;;;;5002698;28;20124;-83
2023/01/08 04:30:59;;;;;;;2.22;0.60;;;;;;;;;;5008942;28;20397;-83
2023/01/08 04:33:26;;;;;;;3.17;0.77;;;;;;;;;;5003586;28;20033;-83
2023/01/08 04:35:51;;;;;;;3.17;0.60;;;;;;;;;;5005039;28;20072;-82
2023/01/08 04:38:16;;;;;;;1.05;0.50;;;;;;;;;;5005194;28;20021;-83
2023/01/08 04:40:43;;;;;;;4.18;1.02;;;;;;;;;;5006618;28;20057;-82
2023/01/08 04:43:08;;;;;;;3.03;0.70;;;;;;;;;;5001891;28;20096;-83
2023/01/08 04:45:34;;;;;;;3.08;0.65;;;;;;;;;;5004507;28;20030;-80
2023/01/08 04:47:59;;;;;;;2.08;0.50;;;;;;;;;;5015455;28;20108;-83
2023/01/08 04:50:25;;;;;;;3.15;0.55;;;;;;;;;;5005371;28;20069;-83
2023/01/08 04:52:51;;;;;;;3.70;0.80;;;;;;;;;;4998975;28;20531;-82
2023/01/08 04:55:16;;;;;;;3.20;0.77;;;;;;;;;;5005576;28;20041;-82
2023/01/08 04:57:42;;;;;;;3.55;0.82;;;;;;;;;;5002630;28;20080;-84
2023/01/08 05:00:08;;;;;;;2.05;0.57;;;;;;;;;;5007447;28;20088;-83
2023/01/08 05:02:33;;;;;;;2.45;0.75;;;;;;;;;;5004872;28;20032;-84
2023/01/08 05:04:59;;;;;;;2.92;0.93;;;;;;;;;;5009734;28;20022;-84
2023/01/08 05:07:24;;;;;;;2.28;0.80;;;;;;;;;;5005704;28;20030;-83
2023/01/08 05:09:50;;;;;;;2.33;0.70;;;;;;;;;;5004253;28;20149;-83
2023/01/08 05:12:16;;;;;;;1.65;0.75;;;;;;;;;;5005572;28;20037;-83
2023/01/08 05:14:41;;;;;;;3.60;0.93;;;;;;;;;;5011952;28;20489;-83
2023/01/08 05:17:07;;;;;;;2.80;0.70;;;;;;;;;;5005826;28;20108;-83
2023/01/08 05:19:32;;;;;;;1.92;0.60;;;;;;;;;;5011132;28;20536;-83
2023/01/08 05:21:57;;;;;;;2.33;0.70;;;;;;;;;;5008443;28;20034;-81
2023/01/08 05:24:23;;;;;;;1.85;0.60;;;;;;;;;;5004393;28;20109;-84
2023/01/08 05:26:48;;;;;;;3.83;0.80;;;;;;;;;;5004657;28;20022;-83
2023/01/08 05:29:14;;;;;;;4.00;0.98;;;;;;;;;;5003639;28;20029;-83
2023/01/08 05:31:39;;;;;;;6.93;0.80;;;;;;;;;;5007892;28;20105;-84
2023/01/08 05:34:04;;;;;;;2.10;0.88;;;;;;;;;;5000851;28;20025;-83
2023/01/08 05:36:30;;;;;;;2.38;0.75;;;;;;;;;;5002037;28;20362;-84
2023/01/08 05:38:55;;;;;;;1.65;0.60;;;;;;;;;;4998314;28;20105;-83
2023/01/08 05:41:21;;;;;;;3.25;0.70;;;;;;;;;;4997150;28;20030;-84
2023/01/08 05:43:46;;;;;;;1.75;0.75;;;;;;;;;;5005615;28;20034;-84
2023/01/08 05:46:12;;;;;;;1.88;0.60;;;;;;;;;;5005158;28;20040;-83
2023/01/08 05:48:37;;;;;;;2.13;0.70;;;;;;;;;;5002598;28;20046;-84
2023/01/08 05:51:04;;;;;;;2.00;0.65;;;;;;;;;;5005171;28;20032;-84
2023/01/08 05:53:31;;;;;;;1.98;0.73;;;;;;;;;;5002830;28;20029;-83
2023/01/08 05:55:59;;;;;;;4.00;1.02;;;;;;;;;;5000146;28;20180;-82
2023/01/08 05:58:26;;;;;;;3.00;0.60;;;;;;;;;;5001517;28;20022;-80
2023/01/08 06:00:51;;;;;;;2.85;0.90;;;;;;;;;;5001198;28;20033;-79
2023/01/08 06:03:20;;;;;;;3.20;0.70;;;;;;;;;;5000500;28;20037;-84
2023/01/08 06:05:45;;;;;;;2.47;0.82;;;;;;;;;;5004317;28;20030;-79
2023/01/08 06:08:10;;;;;;;1.95;0.70;;;;;;;;;;5000865;28;20099;-83
2023/01/08 06:10:37;;;;;;;2.20;0.70;;;;;;;;;;4999549;28;20398;-83
2023/01/08 06:13:06;;;;;;;1.80;0.75;;;;;;;;;;4999329;28;20026;-83
2023/01/08 06:15:32;;;;;;;3.15;1.08;;;;;;;;;;4996054;28;20640;-84
2023/01/08 06:18:02;;;;;;;3.85;0.80;;;;;;;;;;5001977;28;20021;-84
2023/01/08 06:20:27;;;;;;;2.78;0.70;;;;;;;;;;4998399;28;20033;-84
2023/01/08 06:22:53;;;;;;;4.20;0.80;;;;;;;;;;5001564;28;20033;-84
2023/01/08 06:25:18;;;;;;;3.75;0.93;;;;;;;;;;5005423;28;20026;-84
2023/01/08 06:27:44;;;;;;;2.92;0.75;;;;;;;;;;5008178;28;20040;-83
2023/01/08 06:30:09;;;;;;;1.20;0.60;;;;;;;;;;5004690;28;20030;-84
2023/01/08 06:32:35;;;;;;;1.60;0.70;;;;;;;;;;5003702;28;20034;-84
2023/01/08 06:35:00;;;;;;;2.38;0.90;;;;;;;;;;5003399;28;20100;-84
2023/01/08 06:37:25;;;;;;;3.90;0.70;;;;;;;;;;5009165;28;20030;-83
2023/01/08 06:39:51;;;;;;;3.05;0.70;;;;;;;;;;5006633;28;20080;-84
2023/01/08 06:42:16;;;;;;;1.73;0.60;;;;;;;;;;5003620;28;20064;-83
2023/01/08 06:44:43;;;;;;;3.92;0.80;;;;;;;;;;5008462;28;20101;-82
2023/01/08 06:47:08;;;;;;;3.67;0.90;;;;;;;;;;5008971;28;20042;-84
2023/01/08 06:49:34;;;;;;;2.60;0.80;;;;;;;;;;5011104;28;20504;-81
2023/01/08 06:51:59;;;;;;;4.47;0.93;;;;;;;;;;5005508;28;20030;-84
2023/01/08 06:54:24;;;;;;;2.63;0.77;;;;;;;;;;5007780;28;20062;-84
2023/01/08 06:56:50;;;;;;;2.17;0.52;;;;;;;;;;5011640;28;20029;-82
2023/01/08 06:59:15;;;;;;;5.47;0.60;;;;;;;;;;5005109;28;20041;-83
2023/01/08 07:01:41;;;;;;;3.08;0.77;;;;;;;;;;5007982;28;20084;-80
2023/01/08 07:04:07;;;;;;;1.77;0.75;;;;;;;;;;5007838;28;20066;-84
2023/01/08 07:06:32;;;;;;;1.90;0.60;;;;;;;;;;5005912;28;20478;-84
2023/01/08 07:08:57;;;;;;;2.10;0.60;;;;;;;;;;5009764;28;20025;-83
2023/01/08 07:11:23;;;;;;;4.15;0.88;;;;;;;;;;5005426;28;20037;-83
2023/01/08 07:13:48;;;;;;;6.47;1.08;;;;;;;;;;5014165;28;20033;-82
2023/01/08 07:16:14;;;;;;;1.10;0.47;;;;;;;;;;5007444;28;20030;-83
2023/01/08 07:18:41;;;;;;;3.10;0.55;;;;;;;;;;5007941;28;20437;-83
2023/01/08 07:21:07;;;;;;;3.08;0.63;;;;;;;;;;5007200;28;20029;-78
2023/01/08 07:23:33;;;;;;;2.85;0.55;;;;;;;;;;5009179;28;21297;-83
2023/01/08 07:26:00;;;;;;;2.05;0.47;;;;;;;;;;5008342;28;20415;-83
2023/01/08 07:28:26;;;;;;;4.78;0.70;;;;;;;;;;5008210;28;20109;-84
2023/01/08 07:30:51;;;;;;;4.63;0.90;;;;;;;;;;5006991;28;20116;-81
2023/01/08 07:33:17;;;;;;;4.75;0.70;;;;;;;;;;5006113;28;20384;-84
2023/01/08 07:35:42;;;;;;;2.47;0.47;;;;;;;;;;5003728;28;20030;-84
2023/01/08 07:38:07;;;;;;;3.53;0.63;;;;;;;;;;5008593;28;20096;-83
2023/01/08 07:40:33;;;;;;;3.50;0.80;;;;;;;;;;5004888;28;20026;-83
2023/01/08 07:43:00;;;;;;;2.53;0.50;;;;;;;;;;5005320;28;20508;-83
2023/01/08 07:45:29;;;;;;;5.40;0.90;;;;;;;;;;5010582;28;20030;-81
2023/01/08 07:47:59;;;;;;;4.95;0.68;;;;;;;;;;5006685;28;20041;-83
2023/01/08 07:50:25;;;;;;;3.92;0.82;;;;;;;;;;5020522;28;20040;-82
2023/01/08 07:52:50;;;;;;;4.60;0.85;;;;;;;;;;5002728;28;20030;-80
2023/01/08 07:55:16;;;;;;;3.67;0.90;;;;;;;;;;5012613;28;20088;-84
2023/01/08 07:57:41;;;;;;;5.63;1.00;;;;;;;;;;5002930;28;20041;-83
2023/01/08 08:00:07;;;;;;;4.38;1.00;;;;;;;;;;5002937;28;20034;-84
2023/01/08 08:02:33;;;;;;;3.05;0.70;;;;;;;;;;5004934;28;20084;-83
2023/01/08 08:04:58;;;;;;;4.30;0.90;;;;;;;;;;5004253;28;20042;-83
2023/01/08 08:07:24;;;;;;;2.88;0.90;;;;;;;;;;5001819;28;20029;-83
2023/01/08 08:09:49;;;;;;;5.30;0.70;;;;;;;;;;5002748;28;20099;-84
2023/01/08 08:12:14;;;;;;;3.92;0.98;;;;;;;;;;5000650;28;20761;-83
2023/01/08 08:14:40;;;;;;;3.38;0.70;;;;;;;;;;5005921;28;20044;-80
2023/01/08 08:17:05;;;;;;;4.80;1.05;;;;;;;;;;5002567;28;20030;-84
2023/01/08 08:19:30;;;;;;;4.72;0.88;;;;;;;;;;5006465;28;20026;-83
2023/01/08 08:21:56;;;;;;;3.78;0.75;;;;;;;;;;5009105;28;20037;-78
2023/01/08 08:24:21;;;;;;;5.25;0.90;;;;;;;;;;5006588;28;20049;-84
2023/01/08 08:26:47;;;;;;;2.85;0.70;;;;;;;;;;5006128;28;20080;-83
2023/01/08 08:29:12;;;;;;;3.40;0.85;;;;;;;;;;5005423;28;20018;-84
2023/01/08 08:31:38;;;;;;;5.18;0.93;;;;;;;;;;5009304;28;20469;-84
2023/01/08 08:34:03;;;;;;;4.43;0.75;;;;;;;;;;5009021;28;20026;-84
2023/01/08 08:36:29;;;;;;;3.53;0.80;;;;;;;;;;4990464;28;20026;-82
2023/01/08 08:38:55;;;;;;;4.85;0.75;;;;;;;;;;5009396;28;20030;-83
2023/01/08 08:41:20;;;;;;;2.53;0.80;;;;;;;;;;5006126;28;20029;-83
2023/01/08 08:43:45;;;;;;;3.45;1.00;;;;;;;;;;5003384;28;20498;-83
2023/01/08 08:46:11;;;;;;;3.15;0.90;;;;;;;;;;5007245;28;20592;-83
2023/01/08 08:48:36;;;;;;;5.22;1.00;;;;;;;;;;5004593;28;20026;-83
2023/01/08 08:51:03;;;;;;;6.03;1.00;;;;;;;;;;5007724;28;20030;-82
2023/01/08 08:53:28;;;;;;;5.30;1.15;;;;;;;;;;5021756;28;20109;-83
2023/01/08 08:55:53;;;;;;;6.95;1.13;;;;;;;;;;5008780;28;20030;-84
2023/01/08 08:58:19;;;;;;;2.67;0.80;;;;;;;;;;5006180;28;20041;-83
2023/01/08 09:00:44;;;;;;;4.20;0.77;;;;;;;;;;5000582;28;20109;-83
2023/01/08 09:03:13;;;;;;;5.13;0.80;;;;;;;;;;5007559;28;20030;-83
2023/01/08 09:05:38;;;;;;;4.07;1.00;;;;;;;;;;5008365;28;20030;-84
2023/01/08 09:08:04;;;;;;;3.50;0.82;;;;;;;;;;5000967;28;20037;-83
2023/01/08 09:10:29;;;;;;;3.65;0.63;;;;;;;;;;4997858;28;20121;-84
2023/01/08 09:12:54;;;;;;;7.63;1.27;;;;;;;;;;5004165;28;20040;-82
2023/01/08 09:15:21;;;;;;;3.60;0.75;;;;;;;;;;5000994;28;20417;-80
2023/01/08 09:17:52;;;;;;;4.85;1.00;;;;;;;;;;5006692;28;20116;-83
2023/01/08 09:20:18;;;;;;;4.00;0.88;;;;;;;;;;5003245;28;20465;-83
2023/01/08 09:22:43;;;;;;;3.50;0.90;;;;;;;;;;5002346;28;20036;-83
2023/01/08 09:25:08;;;;;;;3.20;0.73;;;;;;;;;;5002850;28;20485;-83
2023/01/08 09:27:34;;;;;;;7.05;0.95;;;;;;;;;;5003006;28;20097;-83
2023/01/08 09:29:59;;;;;;;3.55;1.02;;;;;;;;;;5000782;28;20026;-80
2023/01/08 09:32:25;;;;;;;3.25;0.60;;;;;;;;;;5005934;28;20469;-83
2023/01/08 09:34:50;;;;;;;1.80;0.63;;;;;;;;;;5005976;28;20033;-84
2023/01/08 09:37:15;;;;;;;6.95;0.80;;;;;;;;;;5004861;28;20044;-81
2023/01/08 09:39:41;;;;;;;3.50;0.75;;;;;;;;;;5013181;28;20033;-82
2023/01/08 09:42:07;;;;;;;3.35;0.82;;;;;;;;;;5000372;28;20485;-83
2023/01/08 09:44:39;;;;;;;4.35;1.02;;;;;;;;;;4996909;28;21694;-84
2023/01/08 09:47:17;;;;;;;2.85;1.05;;;;;;;;;;5003191;28;20034;-80
2023/01/08 09:49:44;;;;;;;5.38;0.68;;;;;;;;;;5003465;28;20057;-82
2023/01/08 09:52:12;;;;;;;4.93;1.30;;;;;;;;;;5003560;28;20029;-83
2023/01/08 09:54:39;;;;;;;5.45;1.35;;;;;;;;;;4999528;28;20041;-79
2023/01/08 09:57:05;;;;;;;5.60;1.10;;;;;;;;;;5002476;28;20026;-81
2023/01/08 09:59:31;;;;;;;4.65;1.13;;;;;;;;;;5000970;28;20474;-84
2023/01/08 10:01:57;;;;;;;3.60;0.95;;;;;;;;;;5001935;28;20034;-83
2023/01/08 10:04:25;;;;;;;3.30;0.73;;;;;;;;;;5003454;28;20489;-83
2023/01/08 10:07:04;;;;;;;3.65;1.08;;;;;;;;;;4999983;28;20049;-84
2023/01/08 10:09:31;;;;;;;7.07;1.00;;;;;;;;;;5003133;28;20095;-82
2023/01/08 10:12:02;;;;;;;4.18;1.20;;;;;;;;;;5005724;28;20026;-84
2023/01/08 10:14:31;;;;;;;2.53;0.70;;;;;;;;;;5004248;28;20568;-84
2023/01/08 10:17:06;;;;;;;6.07;1.17;;;;;;;;;;5001125;28;20045;-79
2023/01/08 10:19:31;;;;;;;4.82;0.90;;;;;;;;;;5006159;28;20481;-83
2023/01/08 10:21:57;;;;;;;3.28;1.10;;;;;;;;;;5003864;28;20104;-84
2023/01/08 10:24:40;;;;;;;3.80;0.85;;;;;;;;;;5003814;28;20040;-85
2023/01/08 10:27:35;;;;;;;3.88;1.17;;;;;;;;;;5002376;28;20516;-83
2023/01/08 10:30:05;;;;;;;6.63;1.52;;;;;;;;;;4999165;28;20030;-84
2023/01/08 10:32:33;;;;;;;5.32;1.20;;;;;;;;;;5004372;28;20033;-82
2023/01/08 10:35:04;;;;;;;4.00;1.52;;;;;;;;;;5013004;28;20116;-83
2023/01/08 10:37:36;;;;;;;4.53;1.02;;;;;;;;;;5016084;28;20044;-84
2023/01/08 10:40:21;;;;;;;4.32;0.65;;;;;;;;;;5019658;28;20051;-85
2023/01/08 10:42:47;;;;;;;6.05;0.93;;;;;;;;;;5013747;28;20099;-84
2023/01/08 10:45:31;;;;;;;5.50;1.20;;;;;;;;;;5025228;28;20110;-84
2023/01/08 10:48:00;;;;;;;3.65;1.23;;;;;;;;;;5007780;28;20452;-82
2023/01/08 10:50:29;;;;;;;3.33;0.82;;;;;;;;;;5002106;28;20037;-84
2023/01/08 10:53:04;;;;;;;5.88;1.08;;;;;;;;;;5003527;28;20092;-85
2023/01/08 10:55:36;;;;;;;5.10;1.13;;;;;;;;;;5005452;28;20413;-81
2023/01/08 10:58:21;;;;;;;4.05;1.10;;;;;;;;;;5005036;28;20505;-84
2023/01/08 11:00:47;;;;;;;4.45;0.80;;;;;;;;;;5001499;28;20648;-84
2023/01/08 11:03:29;;;;;;;3.75;0.93;;;;;;;;;;5005421;28;20167;-84
2023/01/08 11:05:55;;;;;;;5.27;0.97;;;;;;;;;;5018413;28;20483;-83
2023/01/08 11:08:21;;;;;;;3.55;0.75;;;;;;;;;;5011916;28;20148;-84
2023/01/08 11:11:08;;;;;;;2.88;0.93;;;;;;;;;;5003112;28;20060;-81
2023/01/08 11:13:33;;;;;;;3.50;0.73;;;;;;;;;;4998938;28;20091;-81
2023/01/08 11:16:09;;;;;;;3.40;0.80;;;;;;;;;;4998639;28;20021;-84
2023/01/08 11:18:44;;;;;;;2.53;0.75;;;;;;;;;;5003487;28;20231;-79
2023/01/08 11:21:30;;;;;;;2.05;0.70;;;;;;;;;;4997649;28;20034;-84
2023/01/08 11:24:15;;;;;;;2.75;0.75;;;;;;;;;;4998617;28;20080;-81
2023/01/08 11:26:44;;;;;;;3.72;0.80;;;;;;;;;;5001432;28;20494;-80
2023/01/08 11:29:16;;;;;;;1.00;0.60;;;;;;;;;;5000447;28;20528;-81
2023/01/08 11:32:23;;;;;;;2.45;0.80;;;;;;;;;;5001191;28;20030;-85
2023/01/08 11:34:50;;;;;;;1.92;0.50;;;;;;;;;;4999657;28;20083;-84
2023/01/08 11:37:25;;;;;;;0.77;0.50;;;;;;;;;;5005711;28;20777;-83
2023/01/08 11:39:52;;;;;;;1.17;0.57;;;;;;;;;;5002194;28;20033;-84
2023/01/08 11:42:30;;;;;;;1.05;0.50;;;;;;;;;;4998888;28;20773;-81
2023/01/08 11:45:09;;;;;;;2.22;0.63;;;;;;;;;;4999963;28;20489;-85
2023/01/08 11:47:41;;;;;;;3.30;0.73;;;;;;;;;;5005383;28;20026;-83
2023/01/08 11:50:26;;;;;;;2.25;0.47;;;;;;;;;;5003903;28;20463;-84
2023/01/08 11:53:05;;;;;;;1.67;0.40;;;;;;;;;;5005387;28;20436;-85
2023/01/08 11:56:18;;;;;;;1.45;0.40;;;;;;;;;;5019344;28;20029;-85
2023/01/08 11:59:08;;;;;;;2.55;0.50;;;;;;;;;;4994515;28;20045;-84
2023/01/08 12:02:05;;;;;;;0.50;0.45;;;;;;;;;;5015279;28;21975;-85
2023/01/08 12:04:45;;;;;;;0.60;0.30;;;;;;;;;;5003657;28;20048;-84
2023/01/08 12:07:22;;;;;;;1.00;0.38;;;;;;;;;;5000974;28;20389;-86
2023/01/08 12:10:04;;;;;;;1.60;0.40;;;;;;;;;;5014734;28;20067;-85
2023/01/08 12:12:41;;;;;;;1.27;0.30;;;;;;;;;;4999819;28;20033;-84
2023/01/08 12:15:20;;;;;;;1.30;0.50;;;;;;;;;;5002045;28;20041;-85
2023/01/08 12:18:04;;;;;;;1.05;0.40;;;;;;;;;;4999384;28;20077;-82
2023/01/08 12:20:34;;;;;;;1.17;0.30;;;;;;;;;;5000228;28;20026;-83
2023/01/08 12:23:28;;;;;;;0.98;0.50;;;;;;;;;;5001381;28;20030;-86
2023/01/08 12:25:53;;;;;;;1.13;0.40;;;;;;;;;;5014096;28;20033;-85
2023/01/08 12:28:18;;;;;;;1.45;0.73;;;;;;;;;;5000994;28;20083;-84
2023/01/08 12:31:19;;;;;;;1.02;0.50;;;;;;;;;;4997144;28;20092;-80
2023/01/08 12:33:59;;;;;;;1.00;0.52;;;;;;;;;;4937570;29;20031;-83
2023/01/08 12:36:29;;;;;;;2.08;0.45;;;;;;;;;;4983287;28;20029;-86
2023/01/08 12:39:03;;;;;;;1.98;0.60;;;;;;;;;;5003036;28;20045;-84
2023/01/08 12:41:32;;;;;;;1.90;0.60;;;;;;;;;;4998740;28;20061;-84
2023/01/08 12:44:00;;;;;;;0.88;0.50;;;;;;;;;;4996722;28;20038;-85
2023/01/08 12:46:30;;;;;;;1.58;0.50;;;;;;;;;;4995802;28;20089;-85
2023/01/08 12:48:56;;;;;;;3.85;0.70;;;;;;;;;;5002905;28;20687;-82
2023/01/08 12:51:27;;;;;;;3.15;0.63;;;;;;;;;;5005390;28;20030;-86
2023/01/08 12:54:20;;;;;;;4.53;0.77;;;;;;;;;;4998666;28;20038;-84
2023/01/08 12:56:51;;;;;;;4.85;1.20;;;;;;;;;;4995228;28;20381;-82
2023/01/08 12:59:36;;;;;;;3.15;1.30;;;;;;;;;;4999842;28;20575;-86
2023/01/08 13:02:12;;;;;;;1.58;0.88;;;;;;;;;;4998275;28;20041;-84
2023/01/08 13:04:42;;;;;;;2.50;1.30;;;;;;;;;;4994571;28;20048;-82
2023/01/08 13:07:16;;;;;;;2.55;1.15;;;;;;;;;;5000713;28;20042;-80
2023/01/08 13:09:42;;;;;;;5.40;1.92;;;;;;;;;;5001104;28;20076;-81
2023/01/08 13:12:13;;;;;;;3.15;1.50;;;;;;;;;;5000530;28;20529;-85
2023/01/08 13:14:44;;;;;;;4.95;1.67;;;;;;;;;;5004998;28;20033;-85
2023/01/08 13:17:21;;;;;;;5.32;1.98;;;;;;;;;;5002585;28;20079;-82
2023/01/08 13:20:17;;;;;;;3.45;1.33;;;;;;;;;;5004718;28;20039;-84
2023/01/08 13:22:43;;;;;;;5.13;1.83;;;;;;;;;;4996633;28;20252;-82
2023/01/08 13:25:14;;;;;;;4.20;1.13;;;;;;;;;;5000510;28;20022;-85
2023/01/08 13:27:39;;;;;;;2.92;1.02;;;;;;;;;;5000414;28;20713;-84
2023/01/08 13:30:45;;;;;;;4.53;1.48;;;;;;;;;;4997424;28;20104;-80
2023/01/08 13:33:35;;;;;;;4.38;1.85;;;;;;;;;;4997329;28;20030;-85
2023/01/08 13:36:22;;;;;;;4.55;1.08;;;;;;;;;;4991944;28;20446;-81
2023/01/08 13:39:09;;;;;;;4.97;2.13;;;;;;;;;;4988317;28;20022;-85
2023/01/08 13:41:38;;;;;;;5.85;1.50;;;;;;;;;;5012039;28;20482;-84
2023/01/08 13:44:21;;;;;;;7.22;2.03;;;;;;;;;;5014266;28;20029;-84
2023/01/08 13:47:02;;;;;;;4.53;1.80;;;;;;;;;;5002631;28;20038;-80
2023/01/08 13:49:33;;;;;;;7.75;1.92;;;;;;;;;;5000941;28;20044;-82
2023/01/08 13:51:58;;;;;;;5.35;1.40;;;;;;;;;;5003420;28;20057;-85
2023/01/08 13:54:31;;;;;;;3.60;1.38;;;;;;;;;;5002829;28;20141;-86
2023/01/08 13:57:04;;;;;;;2.55;1.20;;;;;;;;;;5003717;28;20029;-86
2023/01/08 13:59:34;;;;;;;;;;;;;;;;;;5014719;28;20565;-83
2023/01/08 14:02:00;;;;;;;4.55;1.35;;;;;;;;;;5000872;28;20004;-85
2023/01/08 14:04:26;;;;;;;4.20;1.38;;;;;;;;;;5014774;28;20029;-84
2023/01/08 14:06:51;;;;;;;3.55;1.02;;;;;;;;;;5000818;28;20167;-86
2023/01/08 14:09:22;;;;;;;4.28;1.38;;;;;;;;;;5001176;28;20021;-86
2023/01/08 14:11:51;;;;;;;4.25;1.00;;;;;;;;;;5004358;28;20030;-86
2023/01/08 14:14:20;;;;;;;4.53;1.10;;;;;;;;;;5010573;28;20079;-85
2023/01/08 14:16:47;;;;;;;4.95;1.40;;;;;;;;;;4999698;28;20036;-83
2023/01/08 14:19:19;;;;;;;5.10;1.80;;;;;;;;;;4995346;28;20030;-81
2023/01/08 14:21:56;;;;;;;2.00;1.00;;;;;;;;;;5001427;28;20763;-82
2023/01/08 14:24:24;;;;;;;2.55;0.90;;;;;;;;;;4996592;28;20112;-82
2023/01/08 14:26:58;;;;;;;3.63;0.90;;;;;;;;;;4997153;28;20143;-81
2023/01/08 14:29:29;;;;;;;3.67;1.40;;;;;;;;;;4995247;28;20584;-84
2023/01/08 14:31:57;;;;;;;2.15;0.90;;;;;;;;;;4996232;28;20401;-83
2023/01/08 14:34:25;;;;;;;4.63;1.50;;;;;;;;;;4994772;28;20029;-84
2023/01/08 14:36:52;;;;;;;3.80;0.90;;;;;;;;;;5014791;28;20382;-83
2023/01/08 14:39:25;;;;;;;6.38;1.17;;;;;;;;;;4996155;28;20041;-83
2023/01/08 14:44:38;;;;;;;4.05;0.90;;;;;;;;;;5004450;28;20437;-86
2023/01/08 14:47:04;;;;;;;4.85;1.10;;;;;;;;;;5002309;28;20026;-86
2023/01/08 14:49:33;;;;;;;7.15;1.00;;;;;;;;;;5001079;28;21556;-86
2023/01/08 14:52:01;;;;;;;2.70;0.80;;;;;;;;;;5003118;28;20038;-86
2023/01/08 14:54:31;;;;;;;3.97;0.80;;;;;;;;;;5001419;28;20030;-80
2023/01/08 14:56:59;;;;;;;2.53;0.77;;;;;;;;;;5002039;28;20073;-80
2023/01/08 14:59:28;;;;;;;3.35;0.90;;;;;;;;;;4996929;28;20175;-80
2023/01/08 15:01:57;;;;;;;2.92;0.90;;;;;;;;;;4999437;28;20029;-81
2023/01/08 15:04:23;;;;;;;3.95;0.77;;;;;;;;;;5001821;28;20643;-81